Time;durP1;ratioP1;P1;durP2;ratioP2;P2;SDS_P1;SDS_P2;PMS_P1;PMS_P2;Temp;Humidity;BMP_temperature;BMP_pressure;BME280_temperature;BME280_humidity;BME280_pressure;Samples;Min_cycle;Max_cycle;Signal;HPM_P1;HPM_P2
2023/06/25 00:00:52;;;;;;;4.82;1.58;;;;;;;;;;20767962;28;20302;-69
2023/06/25 00:10:54;;;;;;;3.33;1.10;;;;;;;;;;20767927;28;20228;-69
2023/06/25 00:20:57;;;;;;;2.05;1.30;;;;;;;;;;20767900;28;20730;-69
2023/06/25 00:30:59;;;;;;;2.05;1.20;;;;;;;;;;20767433;28;20594;-69
2023/06/25 00:41:01;;;;;;;1.70;1.20;;;;;;;;;;20767283;28;20292;-69
2023/06/25 00:51:02;;;;;;;1.48;1.10;;;22.90;90.90;;;;;;20778160;28;20214;-69
2023/06/25 01:01:15;;;;;;;2.50;1.63;;;25.20;99.90;;;;;;20764444;28;20315;-69
2023/06/25 01:11:17;;;;;;;2.42;1.40;;;24.90;99.90;;;;;;20842060;23;20302;-71
2023/06/25 01:21:23;;;;;;;3.20;1.40;;;;;;;;;;20877133;28;20275;-73
2023/06/25 01:31:30;;;;;;;2.20;1.30;;;;;;;;;;20869339;28;20264;-71
2023/06/25 01:41:33;;;;;;;3.78;1.30;;;;;;;;;;20793316;28;20278;-71
2023/06/25 01:51:34;;;;;;;2.25;1.20;;;;;;;;;;20808905;28;20616;-74
2023/06/25 02:01:37;;;;;;;2.20;1.38;;;;;;;;;;20808137;28;20263;-71
2023/06/25 02:11:39;;;;;;;2.08;1.20;;;;;;;;;;20807794;28;20338;-72
2023/06/25 02:21:40;;;;;;;2.22;1.30;;;;;;;;;;20856670;28;20257;-72
2023/06/25 02:31:42;;;;;;;2.50;1.50;;;;;;;;;;20845826;28;20638;-73
2023/06/25 02:41:44;;;;;;;2.45;1.42;;;;;;;;;;20787195;28;20709;-71
2023/06/25 02:51:46;;;;;;;2.47;1.20;;;;;;;;;;20851155;28;20229;-73
2023/06/25 03:01:48;;;;;;;2.20;1.55;;;;;;;;;;20853279;28;20706;-71
2023/06/25 03:11:50;;;;;;;2.33;1.63;;;;;;;;;;20851962;28;20605;-74
2023/06/25 03:21:52;;;;;;;2.45;1.60;;;;;;;;;;20835807;28;20224;-73
2023/06/25 03:31:54;;;;;;;3.30;1.88;;;;;;;;;;20841375;28;20215;-71
2023/06/25 03:42:00;;;;;;;2.58;1.70;;;;;;;;;;20784376;28;20278;-71
2023/06/25 03:52:03;;;;;;;3.47;2.20;;;;;;;;;;20785505;28;20659;-71
2023/06/25 04:02:05;;;;;;;3.30;1.98;;;23.10;99.90;;;;;;20768800;28;20232;-71
2023/06/25 04:12:08;;;;;;;3.47;1.70;;;;;;;;;;20784698;28;20290;-71
2023/06/25 04:22:11;;;;;;;2.33;1.63;;;;;;;;;;20779493;28;20292;-73
2023/06/25 04:32:13;;;;;;;4.55;1.75;;;;;;;;;;20829232;28;20215;-73
2023/06/25 04:42:15;;;;;;;3.47;2.08;;;;;;;;;;20797165;28;20233;-71
2023/06/25 04:52:20;;;;;;;2.30;1.70;;;;;;;;;;20781890;28;20222;-73
2023/06/25 05:02:22;;;;;;;3.22;1.60;;;;;;;;;;20798174;28;20237;-73
2023/06/25 05:12:24;;;;;;;5.15;1.80;;;;;;;;;;20780493;28;20237;-72
2023/06/25 05:22:26;;;;;;;4.53;1.75;;;;;;;;;;20780179;28;20229;-71
2023/06/25 05:32:28;;;;;;;3.85;1.58;;;;;;;;;;20808211;28;20215;-73
2023/06/25 05:42:30;;;;;;;3.38;1.40;;;;;;;;;;20793509;28;20289;-73
2023/06/25 05:52:31;;;;;;;3.42;1.80;;;;;;;;;;20778295;28;20287;-72
2023/06/25 06:02:33;;;;;;;3.22;1.67;;;;;;;;;;20777973;28;20219;-72
2023/06/25 06:12:35;;;;;;;3.42;1.40;;;23.50;99.90;;;;;;20809159;28;20800;-73
2023/06/25 06:22:37;;;;;;;2.25;1.50;;;;;;;;;;20808157;28;20222;-73
2023/06/25 06:32:39;;;;;;;2.35;1.73;;;;;;;;;;20788366;28;20250;-73
2023/06/25 06:42:41;;;;;;;2.67;1.85;;;;;;;;;;20803484;28;20219;-71
2023/06/25 06:52:45;;;;;;;2.03;1.35;;;25.10;99.90;;;;;;20805407;28;20220;-73
2023/06/25 07:02:47;;;;;;;2.15;1.20;;;;;;;;;;20757152;28;20297;-74
2023/06/25 07:12:49;;;;;;;2.80;1.33;;;;;;;;;;20793271;23;20232;-73
2023/06/25 07:22:50;;;;;;;2.60;1.48;;;;;;;;;;20800939;28;20228;-73
2023/06/25 07:32:52;;;;;;;2.05;1.27;;;;;;;;;;20827361;28;20208;-73
2023/06/25 07:42:54;;;;;;;2.83;1.50;;;;;;;;;;20831057;28;20289;-73
2023/06/25 07:52:56;;;;;;;2.65;1.15;;;;;;;;;;20820502;28;20282;-74
2023/06/25 08:02:57;;;;;;;2.58;1.60;;;;;;;;;;20816443;28;20251;-74
2023/06/25 08:12:59;;;;;;;1.98;1.30;;;;;;;;;;20832230;28;20233;-73
2023/06/25 08:23:01;;;;;;;3.28;1.50;;;;;;;;;;20832164;28;20713;-73
2023/06/25 08:33:02;;;;;;;2.47;1.58;;;;;;;;;;20845989;28;20284;-73
2023/06/25 08:43:04;;;;;;;2.35;1.50;;;;;;;;;;20846124;28;20218;-73
2023/06/25 08:53:06;;;;;;;1.85;1.20;;;;;;;;;;20798082;28;20283;-73
2023/06/25 09:03:07;;;;;;;1.98;1.23;;;;;;;;;;20830287;28;20247;-73
2023/06/25 09:13:09;;;;;;;2.45;1.40;;;;;;;;;;20795715;28;20226;-73
2023/06/25 09:23:10;;;;;;;1.88;1.33;;;;;;;;;;20828702;28;20278;-74
2023/06/25 09:33:13;;;;;;;1.50;0.90;;;;;;;;;;20823254;28;20217;-73
2023/06/25 09:43:15;;;;;;;1.52;1.10;;;;;;;;;;20824106;28;20225;-74
2023/06/25 09:53:21;;;;;;;1.92;1.20;;;28.80;78.20;;;;;;20824867;28;20234;-73
2023/06/25 10:03:24;;;;;;;1.65;1.10;;;;;;;;;;20826675;28;20224;-73
2023/06/25 10:13:26;;;;;;;1.65;1.10;;;29.20;70.50;;;;;;20824523;28;20252;-73
2023/06/25 10:23:29;;;;;;;1.67;1.05;;;29.70;72.30;;;;;;20822262;28;20761;-74
2023/06/25 10:33:31;;;;;;;1.70;1.13;;;;;;;;;;20836064;28;20240;-73
2023/06/25 10:43:33;;;;;;;1.55;1.00;;;;;;;;;;20836659;28;20280;-74
2023/06/25 10:53:34;;;;;;;1.58;1.10;;;;;;;;;;20820162;28;20213;-74
2023/06/25 11:03:37;;;;;;;1.80;0.88;;;;;;;;;;20825784;28;20218;-74
2023/06/25 11:13:39;;;;;;;1.23;0.80;;;;;;;;;;20821638;28;20276;-73
2023/06/25 11:23:43;;;;;;;1.58;1.00;;;;;;;;;;20821034;28;20305;-73
2023/06/25 11:33:54;;;;;;;1.85;1.00;;;31.10;70.50;;;;;;20832597;28;20689;-73
2023/06/25 11:43:56;;;;;;;1.88;1.10;;;;;;;;;;20833023;28;20391;-73
2023/06/25 11:53:58;;;;;;;1.80;1.10;;;;;;;;;;20815781;28;20219;-73
2023/06/25 12:03:59;;;;;;;1.63;1.08;;;;;;;;;;20816778;28;20227;-73
2023/06/25 12:14:01;;;;;;;1.70;0.90;;;;;;;;;;20799515;28;20230;-74
2023/06/25 12:24:04;;;;;;;1.25;0.90;;;;;;;;;;20817521;28;20223;-74
2023/06/25 12:34:06;;;;;;;1.00;0.70;;;;;;;;;;20829994;28;20219;-73
2023/06/25 12:44:08;;;;;;;2.30;1.00;;;;;;;;;;20864653;28;20325;-73
2023/06/25 12:54:09;;;;;;;1.27;0.93;;;;;;;;;;20831337;28;20218;-74
2023/06/25 13:04:11;;;;;;;1.15;0.90;;;;;;;;;;20829600;28;20240;-73
2023/06/25 13:14:13;;;;;;;4.30;1.00;;;;;;;;;;20828243;28;20234;-72
2023/06/25 13:24:15;;;;;;;2.90;1.17;;;;;;;;;;20832304;28;20296;-74
2023/06/25 13:34:16;;;;;;;1.75;1.00;;;;;;;;;;20843053;28;20280;-74
2023/06/25 13:44:18;;;;;;;1.52;1.15;;;;;;;;;;20843372;28;20227;-74
2023/06/25 13:54:23;;;;;;;1.25;0.90;;;;;;;;;;20824075;28;20676;-73
2023/06/25 14:04:24;;;;;;;1.70;1.20;;;;;;;;;;20826361;28;20226;-73
2023/06/25 14:14:27;;;;;;;2.45;1.35;;;;;;;;;;20877967;28;20284;-74
2023/06/25 14:24:28;;;;;;;1.20;0.82;;;;;;;;;;20888068;28;20280;-74
2023/06/25 14:34:30;;;;;;;1.63;1.00;;;;;;;;;;20856046;28;20214;-74
2023/06/25 14:44:31;;;;;;;2.50;1.00;;;;;;;;;;20836704;28;20218;-73
2023/06/25 14:54:33;;;;;;;2.92;1.30;;;;;;;;;;20819633;28;20210;-73
2023/06/25 15:04:36;;;;;;;1.40;0.93;;;;;;;;;;20819755;28;20292;-73
2023/06/25 15:14:38;;;;;;;1.48;1.00;;;;;;;;;;20819730;28;20227;-74
2023/06/25 15:24:39;;;;;;;2.00;1.20;;;;;;;;;;20820085;28;20215;-74
2023/06/25 15:34:41;;;;;;;1.65;1.10;;;;;;;;;;20838739;28;20268;-73
2023/06/25 15:44:43;;;;;;;1.88;1.23;;;;;;;;;;20824444;28;20223;-73
2023/06/25 15:54:46;;;;;;;1.60;1.13;;;34.00;61.00;;;;;;20818077;28;20219;-73
2023/06/25 16:04:48;;;;;;;2.05;1.67;;;;;;;;;;20818015;28;20234;-74
2023/06/25 16:14:49;;;;;;;1.83;1.17;;;;;;;;;;20822785;28;20234;-74
2023/06/25 16:24:51;;;;;;;1.92;1.20;;;;;;;;;;20833272;28;20595;-73
2023/06/25 16:34:53;;;;;;;1.58;1.10;;;;;;;;;;20845521;28;20269;-73
2023/06/25 16:44:54;;;;;;;1.40;0.90;;;;;;;;;;20844971;28;20218;-73
2023/06/25 16:54:56;;;;;;;1.30;1.00;;;;;;;;;;20811654;28;20345;-73
2023/06/25 17:04:58;;;;;;;1.27;0.90;;;;;;;;;;20827903;28;20218;-73
2023/06/25 17:14:59;;;;;;;1.40;1.00;;;;;;;;;;20904857;23;20230;-69
2023/06/25 17:25:01;;;;;;;1.65;1.20;;;;;;;;;;20860395;28;20602;-70
2023/06/25 17:35:03;;;;;;;1.90;1.15;;;;;;;;;;20823775;28;20215;-68
2023/06/25 17:45:05;;;;;;;1.63;1.10;;;;;;;;;;20801049;28;20244;-68
2023/06/25 17:55:08;;;;;;;1.58;1.08;;;;;;;;;;20825289;28;20704;-67
2023/06/25 18:05:10;;;;;;;1.90;1.02;;;;;;;;;;20776465;28;20696;-67
2023/06/25 18:15:12;;;;;;;1.80;1.17;;;;;;;;;;20792042;28;20261;-67
2023/06/25 18:25:14;;;;;;;1.50;1.02;;;;;;;;;;20806666;28;20226;-67
2023/06/25 18:35:16;;;;;;;1.70;1.08;;;;;;;;;;20802136;28;20855;-67
2023/06/25 18:45:18;;;;;;;1.38;1.10;;;;;;;;;;20871226;28;20226;-67
2023/06/25 18:55:20;;;;;;;1.70;1.10;;;;;;;;;;20853660;28;20771;-67
2023/06/25 19:05:22;;;;;;;2.15;1.40;;;;;;;;;;20853283;28;20287;-67
2023/06/25 19:15:24;;;;;;;1.67;1.05;;;;;;;;;;20852666;28;20222;-68
2023/06/25 19:25:26;;;;;;;2.28;1.35;;;;;;;;;;20851802;28;20222;-68
2023/06/25 19:35:27;;;;;;;2.00;1.40;;;;;;;;;;20865461;23;20264;-72
2023/06/25 19:45:29;;;;;;;4.13;1.42;;;;;;;;;;20858224;28;20230;-72
2023/06/25 19:55:31;;;;;;;4.18;1.20;;;;;;;;;;20884972;28;20206;-72
2023/06/25 20:05:33;;;;;;;4.78;1.40;;;;;;;;;;20868314;28;20225;-72
2023/06/25 20:15:35;;;;;;;2.55;1.25;;;;;;;;;;20867588;28;20636;-72
2023/06/25 20:25:37;;;;;;;1.80;1.30;;;;;;;;;;20866262;28;20229;-72
2023/06/25 20:35:39;;;;;;;2.17;1.10;;;;;;;;;;20866006;28;20229;-72
2023/06/25 20:45:41;;;;;;;2.60;1.80;;;;;;;;;;20887475;28;20660;-72
2023/06/25 20:55:43;;;;;;;1.80;1.20;;;;;;;;;;20880323;28;20307;-71
2023/06/25 21:05:45;;;;;;;3.80;1.42;;;;;;;;;;20862004;28;20699;-71
2023/06/25 21:15:46;;;;;;;2.47;1.70;;;;;;;;;;20878981;28;20403;-71
2023/06/25 21:25:49;;;;;;;2.67;1.48;;;;;;;;;;20877700;28;20299;-71
2023/06/25 21:35:50;;;;;;;5.57;2.17;;;;;;;;;;20860862;28;20863;-71
2023/06/25 21:45:52;;;;;;;3.65;1.92;;;;;;;;;;20866981;28;20233;-71
2023/06/25 21:55:54;;;;;;;2.63;1.45;;;;;;;;;;20859629;28;20224;-71
2023/06/25 22:05:56;;;;;;;4.07;1.65;;;;;;;;;;20874754;28;20415;-71
2023/06/25 22:15:57;;;;;;;2.20;1.50;;;;;;;;;;20855405;28;20217;-71
2023/06/25 22:25:59;;;;;;;2.80;1.60;;;;;;;;;;20857197;28;20717;-71
2023/06/25 22:36:01;;;;;;;2.42;1.60;;;;;;;;;;20856237;28;20676;-71
2023/06/25 22:46:03;;;;;;;2.60;1.55;;;;;;;;;;20862716;28;20228;-71
2023/06/25 22:56:06;;;;;;;2.25;1.50;;;;;;;;;;20887849;28;20228;-71
2023/06/25 23:06:08;;;;;;;2.05;1.45;;;;;;;;;;20853880;28;20271;-71
2023/06/25 23:16:10;;;;;;;1.73;1.25;;;;;;;;;;20853470;28;20222;-71
2023/06/25 23:26:13;;;;;;;2.50;1.70;;;27.60;90.60;;;;;;20868055;28;20664;-72
2023/06/25 23:36:15;;;;;;;2.60;1.90;;;;;;;;;;20852208;28;20657;-71
2023/06/25 23:46:19;;;;;;;2.47;1.73;;;;;;;;;;20867504;28;20285;-71
2023/06/25 23:56:22;;;;;;;2.72;1.88;;;;;;;;;;20866924;28;20236;-71
